Terminal Aerodrome Forecast
Issued by NWS

Home | Current Version | Previous Version | Text Only | Print | Product List | Glossary On
Versions: 1 2 3 4 5 6 7 8 9 10 11 12 13 14 15 16 17 18 19 20 21 22 23 24
611
FTUS43 KSGF 201100 CCA
TAFJLN
TAF COR
KJLN 201140Z 2012/2112 16005KT 2SM SHRA BR BKN009 BKN045
     FM201800 34010KT 5SM BR BKN007 BKN020
     FM202100 36010KT 6SM BR OVC012
     FM210100 35006KT P6SM SCT007 OVC015=

USA.gov is the U.S. government's official web portal to all federal, state and local government web resources and services.